Time;durP1;ratioP1;P1;durP2;ratioP2;P2;SDS_P1;SDS_P2;PMS_P1;PMS_P2;Temp;Humidity;BMP_temperature;BMP_pressure;BME280_temperature;BME280_humidity;BME280_pressure;Samples;Min_cycle;Max_cycle;Signal;HPM_P1;HPM_P2
2022/08/30 00:03:13;;;;;;;4.30;4.00;;;;;;;;;;4985934;28;20428;-68
2022/08/30 00:05:40;;;;;;;3.83;3.63;;;;;;;;;;4986228;28;20437;-68
2022/08/30 00:08:06;;;;;;;4.60;4.20;;;;;;;;;;4986717;28;20546;-69
2022/08/30 00:10:32;;;;;;;6.07;5.73;;;;;;;;;;4988051;28;20444;-68
2022/08/30 00:12:58;;;;;;;3.50;3.30;;;;;;;;;;4989734;28;21006;-68
2022/08/30 00:15:24;;;;;;;4.33;3.90;;;;;;;;;;4984528;28;20441;-68
2022/08/30 00:17:50;;;;;;;4.87;4.50;;;;;;;;;;4985343;28;20519;-67
2022/08/30 00:20:19;;;;;;;4.73;3.93;;;;;;;;;;4987427;28;20507;-69
2022/08/30 00:22:45;;;;;;;4.87;4.50;;;;;;;;;;4988005;28;20433;-67
2022/08/30 00:25:11;;;;;;;7.03;4.60;;;;;;;;;;4986059;28;20444;-69
2022/08/30 00:27:37;;;;;;;3.63;3.53;;;;;;;;;;4987269;28;20484;-68
2022/08/30 00:30:04;;;;;;;5.23;4.93;;;;;;;;;;4986511;28;20809;-69
2022/08/30 00:32:30;;;;;;;8.67;4.73;;;;;;;;;;4984604;28;20572;-68
2022/08/30 00:34:56;;;;;;;4.13;4.03;;;;;;;;;;4986357;28;20922;-68
2022/08/30 00:37:22;;;;;;;4.20;3.87;;;;;;;;;;4988139;28;20448;-68
2022/08/30 00:39:48;;;;;;;5.17;4.77;;;;;;;;;;4986346;28;20298;-68
2022/08/30 00:42:15;;;;;;;5.17;4.77;;;;;;;;;;4986541;28;20809;-68
2022/08/30 00:44:41;;;;;;;8.90;5.13;;;;;;;;;;4986341;28;20513;-68
2022/08/30 00:47:07;;;;;;;5.53;5.30;;;;;;;;;;4988551;28;20465;-67
2022/08/30 00:49:34;;;;;;;10.43;5.13;;;;;;;;;;5002585;28;20441;-67
2022/08/30 00:52:01;;;;;;;5.10;4.80;;;;;;;;;;5003168;28;20433;-67
2022/08/30 00:54:27;;;;;;;5.33;5.03;;;;;;;;;;4986162;28;20476;-67
2022/08/30 00:56:54;;;;;;;5.03;4.63;;;;;;;;;;4986636;28;20968;-69
2022/08/30 00:59:20;;;;;;;7.67;4.80;;;;;;;;;;4999745;28;20487;-68
2022/08/30 01:01:47;;;;;;;5.80;5.37;;;;;;;;;;4990752;28;20441;-68
2022/08/30 01:04:13;;;;;;;6.13;5.03;;;;;;;;;;4988017;28;20464;-70
2022/08/30 01:06:40;;;;;;;4.53;4.23;;;;;;;;;;4991806;28;20532;-69
2022/08/30 01:09:07;;;;;;;7.13;6.43;;;;;;;;;;4991475;28;20445;-69
2022/08/30 01:11:34;;;;;;;6.57;5.10;;;;;;;;;;4992689;28;20438;-67
2022/08/30 01:14:01;;;;;;;6.73;5.47;;;;;;;;;;4987806;28;20429;-69
2022/08/30 01:16:30;;;;;;;5.23;5.00;;;;;;;;;;4992407;28;20444;-70
2022/08/30 01:18:56;;;;;;;6.33;5.30;;;;;;;;;;4986902;28;20441;-69
2022/08/30 01:21:26;;;;;;;7.00;5.20;;;;;;;;;;4990532;28;20527;-69
2022/08/30 01:23:53;;;;;;;4.90;4.60;;;;;;;;;;4987325;28;20444;-70
2022/08/30 01:26:20;;;;;;;7.30;5.00;;;;;;;;;;4984470;28;20515;-69
2022/08/30 01:28:47;;;;;;;4.90;4.67;;;;;;;;;;4987765;28;20476;-69
2022/08/30 01:31:14;;;;;;;3.40;3.20;;;;;;;;;;4985443;28;20439;-69
2022/08/30 01:33:40;;;;;;;5.77;5.17;;;;;;;;;;4988838;28;20445;-70
2022/08/30 01:36:09;;;;;;;5.90;5.60;;;;;;;;;;4989982;28;20514;-70
2022/08/30 01:38:45;;;;;;;6.03;5.63;;;;;;;;;;4992456;28;20490;-70
2022/08/30 01:41:14;;;;;;;5.53;5.13;;;;;;;;;;4990670;28;20500;-70
2022/08/30 01:43:41;;;;;;;5.23;5.00;;;;;;;;;;4991149;28;20855;-69
2022/08/30 01:46:07;;;;;;;17.40;5.90;;;;;;;;;;5006091;28;20449;-69
2022/08/30 01:48:33;;;;;;;6.10;5.17;;;;;;;;;;4989585;28;20426;-68
2022/08/30 01:50:59;;;;;;;6.30;5.87;;;;;;;;;;4988606;28;20460;-69
2022/08/30 01:53:25;;;;;;;9.50;6.47;;;;;;;;;;4991349;28;20480;-70
2022/08/30 01:55:51;;;;;;;6.43;5.73;;;;;;;;;;4991213;28;20896;-69
2022/08/30 01:58:17;;;;;;;4.30;4.10;;;;;;;;;;5001824;28;20444;-68
2022/08/30 02:00:43;;;;;;;5.50;5.07;;;;;;;;;;4988593;28;20580;-68
2022/08/30 02:03:09;;;;;;;13.40;5.50;;;;;;;;;;4990475;28;21174;-70
2022/08/30 02:05:35;;;;;;;5.50;5.07;;;;;;;;;;4987958;28;20437;-70
2022/08/30 02:08:02;;;;;;;9.43;4.33;;;;;;;;;;4991999;28;21008;-69
2022/08/30 02:10:29;;;;;;;5.53;4.83;;;;;;;;;;4989428;28;20527;-69
2022/08/30 02:12:55;;;;;;;4.77;4.37;;;;;;;;;;4990682;28;20479;-69
2022/08/30 02:15:21;;;;;;;5.90;5.17;;;;;;;;;;4989141;28;20452;-69
2022/08/30 02:17:47;;;;;;;4.40;4.10;;;;;;;;;;4991414;28;20421;-70
2022/08/30 02:20:13;;;;;;;5.17;4.90;;;;;;;;;;4991324;28;20309;-69
2022/08/30 02:22:39;;;;;;;5.00;4.70;;;;;;;;;;4985800;28;20526;-68
2022/08/30 02:25:06;;;;;;;9.37;5.03;;;;;;;;;;4991372;28;20432;-69
2022/08/30 02:27:32;;;;;;;5.00;4.80;;;;;;;;;;4989166;28;20465;-69
2022/08/30 02:29:58;;;;;;;5.97;5.43;;;;;;;;;;4990395;28;20963;-69
2022/08/30 02:32:24;;;;;;;5.20;4.70;;;;;;;;;;4991151;28;20427;-69
2022/08/30 02:34:50;;;;;;;5.53;5.33;;;;;;;;;;4987317;28;20473;-69
2022/08/30 02:37:16;;;;;;;5.37;4.87;;;;;;;;;;4987759;28;21190;-69
2022/08/30 02:39:42;;;;;;;4.87;4.67;;;;;;;;;;4988487;28;20569;-69
2022/08/30 02:42:08;;;;;;;5.13;4.83;;;;;;;;;;4989297;28;20883;-70
2022/08/30 02:44:34;;;;;;;9.23;4.73;;;;;;;;;;5003242;28;20518;-69
2022/08/30 02:47:00;;;;;;;4.87;4.47;;;;;;;;;;4988814;28;20441;-70
2022/08/30 02:49:26;;;;;;;4.63;4.53;;;;;;;;;;4990088;28;20429;-69
2022/08/30 02:51:52;;;;;;;6.47;4.30;;;;;;;;;;4988377;28;20860;-70
2022/08/30 02:54:18;;;;;;;5.10;4.70;;;;;;;;;;4986866;28;20964;-70
2022/08/30 02:56:48;;;;;;;8.80;5.43;;;;;;;;;;4990192;28;20435;-69
2022/08/30 02:59:15;;;;;;;11.70;5.13;;;;;;;;;;4989770;28;21183;-69
2022/08/30 03:01:41;;;;;;;6.47;4.13;;;;;;;;;;4989960;28;20445;-69
2022/08/30 03:04:08;;;;;;;4.67;4.47;;;;;;;;;;4990479;28;20425;-69
2022/08/30 03:06:34;;;;;;;5.43;5.13;;;;;;;;;;4988393;28;21220;-69
2022/08/30 03:09:00;;;;;;;5.47;5.17;;;;;;;;;;4989448;28;20433;-70
2022/08/30 03:11:27;;;;;;;5.77;5.00;;;;;;;;;;4989854;28;20448;-70
2022/08/30 03:13:53;;;;;;;5.83;5.37;;;;;;;;;;4988299;28;20940;-67
2022/08/30 03:16:20;;;;;;;5.53;5.10;;;;;;;;;;4987905;28;20425;-69
2022/08/30 03:18:46;;;;;;;5.57;5.27;;;;;;;;;;4988274;28;20440;-69
2022/08/30 03:21:13;;;;;;;5.70;5.20;;;;;;;;;;4988659;28;20476;-68
2022/08/30 03:23:40;;;;;;;5.10;4.90;;;;;;;;;;4988835;28;20434;-69
2022/08/30 03:26:10;;;;;;;5.50;5.20;;;;;;;;;;4988494;28;20516;-67
2022/08/30 03:28:37;;;;;;;4.93;4.63;;;;;;;;;;4988368;28;20547;-69
2022/08/30 03:31:02;;;;;;;3.03;3.03;;;;;;;;;;4990544;28;21000;-69
2022/08/30 03:33:28;;;;;;;4.63;3.97;;;;;;;;;;4989783;28;20528;-69
2022/08/30 03:35:54;;;;;;;4.47;4.17;;;;;;;;;;4990447;28;20952;-69
2022/08/30 03:38:20;;;;;;;4.70;4.40;;;;;;;;;;4985341;28;20933;-67
2022/08/30 03:40:47;;;;;;;5.10;4.57;;;;;;;;;;4985945;28;20517;-68
2022/08/30 03:43:13;;;;;;;5.10;4.73;;;;;;;;;;4987551;28;20440;-69
2022/08/30 03:45:39;;;;;;;7.83;5.03;;;;;;;;;;5004106;28;20441;-68
2022/08/30 03:48:05;;;;;;;8.87;5.03;;;;;;;;;;4989540;28;20528;-68
2022/08/30 03:50:31;;;;;;;4.97;4.47;;;;;;;;;;4988324;28;20842;-67
2022/08/30 03:52:59;;;;;;;5.27;4.80;;;;;;;;;;4986712;28;20499;-68
2022/08/30 03:55:27;;;;;;;4.03;3.93;;;;;;;;;;4987452;28;20500;-68
2022/08/30 03:57:53;;;;;;;4.00;3.80;;;;;;;;;;4989038;28;20425;-67
2022/08/30 04:00:19;;;;;;;4.77;3.97;;;;;;;;;;4984836;28;20481;-68
2022/08/30 04:02:45;;;;;;;4.23;4.10;;;;;;;;;;4986393;28;20984;-70
2022/08/30 04:05:11;;;;;;;4.53;3.83;;;;;;;;;;4987855;28;20536;-69
2022/08/30 04:07:37;;;;;;;4.90;4.47;;;;;;;;;;4988807;28;20544;-68
2022/08/30 04:10:04;;;;;;;5.50;5.20;;;;;;;;;;4989752;28;20464;-69
2022/08/30 04:12:30;;;;;;;6.03;4.50;;;;;;;;;;4985310;28;20441;-68
2022/08/30 04:14:56;;;;;;;4.70;4.00;;;;;;;;;;4986876;28;20441;-70
2022/08/30 04:17:22;;;;;;;6.20;4.13;;;;;;;;;;4987704;28;20451;-69
2022/08/30 04:19:48;;;;;;;5.30;4.03;;;;;;;;;;4989547;28;20224;-70
2022/08/30 04:22:14;;;;;;;3.10;2.97;;;;;;;;;;4984463;28;20941;-68
2022/08/30 04:24:40;;;;;;;3.53;3.10;;;;;;;;;;4987689;28;20448;-70
2022/08/30 04:27:07;;;;;;;3.90;3.60;;;;;;;;;;4988627;28;20441;-70
2022/08/30 04:29:33;;;;;;;3.77;3.57;;;;;;;;;;4988794;28;20448;-69
2022/08/30 04:31:59;;;;;;;4.50;3.53;;;;;;;;;;4984650;28;20433;-69
2022/08/30 04:34:25;;;;;;;4.13;3.93;;;;;;;;;;4986996;28;20487;-69
2022/08/30 04:36:51;;;;;;;3.77;3.67;;;;;;;;;;4985764;28;20441;-70
2022/08/30 04:39:18;;;;;;;3.67;3.20;;;;;;;;;;5003042;28;20530;-69
2022/08/30 04:41:44;;;;;;;4.00;3.03;;;;;;;;;;4986931;28;20460;-70
2022/08/30 04:44:10;;;;;;;7.13;2.97;;;;;;;;;;4985613;28;20429;-69
2022/08/30 04:46:36;;;;;;;6.73;3.80;;;;;;;;;;4988925;28;20775;-69
2022/08/30 04:49:03;;;;;;;5.17;3.73;;;;;;;;;;4989058;28;20488;-69
2022/08/30 04:51:29;;;;;;;3.60;3.50;;;;;;;;;;4988695;28;20503;-69
2022/08/30 04:53:55;;;;;;;2.87;2.77;;;;;;;;;;4987888;28;20437;-69
2022/08/30 04:56:21;;;;;;;8.67;4.17;;;;;;;;;;4989221;28;20867;-70
2022/08/30 04:58:48;;;;;;;4.87;4.43;;;;;;;;;;4988665;28;20437;-70
2022/08/30 05:01:15;;;;;;;4.00;3.80;;;;;;;;;;4985138;28;20504;-69
2022/08/30 05:03:41;;;;;;;6.00;4.37;;;;;;;;;;4983376;28;20516;-67
2022/08/30 05:06:07;;;;;;;4.30;4.00;;;;;;;;;;4986632;28;20527;-69
2022/08/30 05:08:33;;;;;;;4.93;4.63;;;;;;;;;;4981233;28;20190;-69
2022/08/30 05:11:00;;;;;;;5.70;4.10;;;;;;;;;;4985800;28;21136;-69
2022/08/30 05:13:26;;;;;;;8.47;4.27;;;;;;;;;;4988517;28;20445;-69
2022/08/30 05:15:51;;;;;;;5.33;4.47;;;;;;;;;;4986192;28;20504;-69
2022/08/30 05:18:17;;;;;;;5.57;4.97;;;;;;;;;;4985469;28;20216;-69
2022/08/30 05:20:43;;;;;;;4.03;3.73;;;;;;;;;;4982109;28;20484;-69
2022/08/30 05:23:10;;;;;;;5.27;4.70;;;;;;;;;;4984788;28;20958;-68
2022/08/30 05:25:37;;;;;;;7.13;5.43;;;;;;;;;;4988305;28;20536;-68
2022/08/30 05:28:04;;;;;;;5.37;4.97;;;;;;;;;;4984967;28;20488;-68
2022/08/30 05:30:31;;;;;;;5.80;4.73;;;;;;;;;;4985537;28;20452;-67
2022/08/30 05:32:57;;;;;;;5.63;5.13;;;;;;;;;;4983566;28;20446;-68
2022/08/30 05:35:23;;;;;;;5.40;5.10;;;;;;;;;;4985093;28;20443;-69
2022/08/30 05:37:49;;;;;;;4.73;3.70;;;;;;;;;;4987634;28;20921;-67
2022/08/30 05:40:16;;;;;;;4.73;4.50;;;;;;;;;;4983497;28;20488;-66
2022/08/30 05:42:42;;;;;;;4.30;3.90;;;;;;;;;;4986825;28;20433;-67
2022/08/30 05:45:09;;;;;;;4.07;3.77;;;;;;;;;;4984411;28;20520;-69
2022/08/30 05:47:35;;;;;;;5.67;4.63;;;;;;;;;;4990361;28;20499;-69
2022/08/30 05:50:01;;;;;;;6.90;4.33;;;;;;;;;;4991244;28;20441;-68
2022/08/30 05:52:27;;;;;;;4.33;4.13;;;;;;;;;;4987895;28;20441;-66
2022/08/30 05:55:02;;;;;;;4.47;4.20;;;;;;;;;;4984928;28;20433;-68
2022/08/30 05:57:30;;;;;;;5.20;3.87;;;;;;;;;;4990563;28;20458;-69
2022/08/30 05:59:56;;;;;;;6.00;5.40;;;;;;;;;;4984142;28;20500;-68
2022/08/30 06:02:22;;;;;;;4.40;4.20;;;;;;;;;;4990968;28;20495;-67
2022/08/30 06:04:48;;;;;;;5.03;4.80;;;;;;;;;;4991215;28;20441;-65
2022/08/30 06:07:14;;;;;;;4.70;4.30;;;;;;;;;;4989852;28;20441;-65
2022/08/30 06:09:40;;;;;;;4.23;3.87;;;;;;;;;;4990126;28;20524;-65
2022/08/30 06:12:06;;;;;;;6.87;6.23;;;;;;;;;;4989632;28;20429;-66
2022/08/30 06:14:33;;;;;;;6.73;5.00;;;;;;;;;;4992389;28;20421;-66
2022/08/30 06:16:58;;;;;;;6.67;4.50;;;;;;;;;;4988835;28;20965;-65
2022/08/30 06:19:24;;;;;;;6.53;4.90;;;;;;;;;;4991575;28;20433;-66
2022/08/30 06:21:51;;;;;;;5.03;3.30;;;;;;;;;;4988088;28;20464;-65
2022/08/30 06:24:17;;;;;;;4.40;3.57;;;;;;;;;;4990475;28;20429;-65
2022/08/30 06:26:44;;;;;;;4.00;3.80;;;;;;;;;;4985774;28;20804;-65
2022/08/30 06:29:11;;;;;;;3.73;3.53;;;;;;;;;;4990458;28;21063;-65
2022/08/30 06:31:37;;;;;;;4.80;4.40;;;;;;;;;;4991149;28;20491;-65
2022/08/30 06:34:04;;;;;;;4.20;4.00;;;;;;;;;;4990512;28;20455;-65
2022/08/30 06:36:30;;;;;;;5.27;5.00;;;;;;;;;;4991989;28;20421;-65
2022/08/30 06:38:57;;;;;;;3.63;3.53;;;;;;;;;;4992100;28;20441;-65
2022/08/30 06:41:28;;;;;;;4.60;3.43;;;;;;;;;;4989955;28;20493;-65
2022/08/30 06:43:54;;;;;;;3.83;3.60;;;;;;;;;;4986205;28;20498;-65
2022/08/30 06:46:22;;;;;;;4.17;4.00;;;;;;;;;;4987029;28;20485;-65
2022/08/30 06:48:48;;;;;;;4.47;3.20;;;;;;;;;;4991732;28;20457;-65
2022/08/30 06:51:14;;;;;;;3.70;3.50;;;;;;;;;;4987923;28;20487;-69
2022/08/30 06:53:41;;;;;;;3.70;3.50;;;;;;;;;;4986381;28;20890;-64
2022/08/30 06:56:08;;;;;;;3.77;3.57;;;;;;;;;;4988651;28;20437;-67
2022/08/30 06:58:34;;;;;;;10.07;4.33;;;;;;;;;;4989624;28;20432;-68
2022/08/30 07:01:00;;;;;;;3.50;3.50;;;;;;;;;;5005322;28;20857;-67
2022/08/30 07:03:26;;;;;;;3.70;3.50;;;;;;;;;;4991590;28;20417;-68
2022/08/30 07:05:53;;;;;;;3.97;3.73;;;;;;;;;;4991671;28;21163;-67
2022/08/30 07:08:19;;;;;;;4.50;3.77;;;;;;;;;;4988735;28;20433;-67
2022/08/30 07:10:46;;;;;;;7.90;5.47;;;;;;;;;;4991493;28;20421;-67
2022/08/30 07:13:12;;;;;;;4.53;4.13;;;;;;;;;;4989907;28;20908;-67
2022/08/30 07:15:41;;;;;;;12.57;4.20;;;;;;;;;;4991584;28;20436;-67
2022/08/30 07:20:52;;;;;;;3.93;3.73;;;;;;;;;;4990173;28;20472;-67
2022/08/30 07:23:18;;;;;;;3.80;3.60;;;;;;;;;;4989922;28;20429;-68
2022/08/30 07:25:45;;;;;;;4.27;3.97;;;;;;;;;;4991435;28;20984;-65
2022/08/30 07:28:11;;;;;;;4.63;3.90;;;;;;;;;;4989370;28;20847;-65
2022/08/30 07:30:37;;;;;;;4.90;3.20;;;;;;;;;;4989589;28;20449;-65
2022/08/30 07:33:03;;;;;;;3.40;3.20;;;;;;;;;;4986831;28;20469;-65
2022/08/30 07:35:30;;;;;;;4.60;3.20;;;;;;;;;;4991244;28;20487;-65
2022/08/30 07:37:57;;;;;;;3.77;3.20;;;;;;;;;;4988396;28;20442;-65
2022/08/30 07:40:23;;;;;;;3.20;2.53;;;;;;;;;;4990913;28;20595;-65
2022/08/30 07:42:49;;;;;;;3.63;3.10;;;;;;;;;;4989410;28;20802;-65
2022/08/30 07:45:15;;;;;;;2.50;2.43;;;;;;;;;;4991112;28;20488;-65
2022/08/30 07:47:41;;;;;;;3.80;3.50;;;;;;;;;;4988686;28;20942;-65
2022/08/30 07:50:07;;;;;;;4.07;3.57;;;;;;;;;;4990612;28;20425;-65
2022/08/30 07:52:33;;;;;;;12.17;3.50;;;;;;;;;;5002916;28;20436;-65
2022/08/30 07:55:00;;;;;;;3.40;3.20;;;;;;;;;;4989531;28;20455;-66
2022/08/30 07:57:26;;;;;;;3.00;2.90;;;;;;;;;;4989648;28;20429;-66
2022/08/30 07:59:52;;;;;;;4.30;2.90;;;;;;;;;;4987383;28;20531;-65
2022/08/30 08:02:18;;;;;;;3.40;3.10;;;;;;;;;;4989763;28;20445;-65
2022/08/30 08:04:45;;;;;;;3.80;3.27;;;;;;;;;;4988357;28;20433;-65
2022/08/30 08:07:11;;;;;;;3.87;3.53;;;;;;;;;;4987392;28;20463;-65
2022/08/30 08:09:38;;;;;;;4.47;3.23;;;;;;;;;;4989023;28;20519;-65
2022/08/30 08:12:05;;;;;;;3.67;2.77;;;;;;;;;;4988570;28;20429;-65
2022/08/30 08:14:31;;;;;;;2.70;2.50;;;;;;;;;;4986474;28;20479;-65
2022/08/30 08:16:58;;;;;;;3.63;3.50;;;;;;;;;;4987100;28;20583;-65
2022/08/30 08:19:24;;;;;;;3.57;3.27;;;;;;;;;;4986577;28;20996;-65
2022/08/30 08:21:55;;;;;;;3.50;3.40;;;;;;;;;;4988673;28;20452;-65
2022/08/30 08:24:21;;;;;;;4.10;3.90;;;;;;;;;;4990765;28;20779;-65
2022/08/30 08:26:47;;;;;;;4.10;3.47;;;;;;;;;;4989903;28;20413;-66
2022/08/30 08:29:13;;;;;;;13.90;3.90;;;;;;;;;;4989307;28;20480;-66
2022/08/30 08:31:40;;;;;;;3.60;3.50;;;;;;;;;;4989234;28;20433;-66
2022/08/30 08:34:07;;;;;;;3.80;3.50;;;;;;;;;;4989652;28;20441;-66
2022/08/30 08:36:33;;;;;;;3.57;3.37;;;;;;;;;;4990509;28;20939;-69
2022/08/30 08:38:59;;;;;;;3.57;3.20;;;;;;;;;;4990309;28;20421;-69
2022/08/30 08:41:28;;;;;;;3.83;3.63;;;;;;;;;;4985570;28;20488;-65
2022/08/30 08:43:54;;;;;;;5.00;4.10;;;;;;;;;;4981555;28;20463;-66
2022/08/30 08:46:36;;;;;;;4.20;3.90;;;;;;;;;;4988400;28;20448;-68
2022/08/30 08:49:04;;;;;;;7.37;4.30;;;;;;;;;;4988257;28;20429;-68
2022/08/30 08:54:23;;;;;;;4.17;3.87;;;;;;;;;;4989611;28;20424;-67
2022/08/30 08:56:49;;;;;;;4.70;4.30;;;;;;;;;;4989041;28;20460;-68
2022/08/30 08:59:15;;;;;;;3.53;3.40;;;;;;;;;;4988899;28;20441;-67
2022/08/30 09:01:41;;;;;;;9.30;3.50;;;;;;;;;;4989044;28;20484;-67
2022/08/30 09:04:16;;;;;;;5.40;3.70;;;;;;;;;;4988451;28;20499;-67
2022/08/30 09:06:42;;;;;;;7.03;3.50;;;;;;;;;;4987198;28;20447;-67
2022/08/30 09:09:09;;;;;;;7.53;3.60;;;;;;;;;;4989892;28;20421;-67
2022/08/30 09:11:36;;;;;;;3.67;3.57;;;;;;;;;;5004714;28;20421;-68
2022/08/30 09:14:02;;;;;;;4.80;4.50;;;;;;;;;;4989292;28;20420;-67
2022/08/30 09:16:47;;;;;;;5.33;4.07;;;;;;;;;;4988092;28;20433;-67
2022/08/30 09:19:33;;;;;;;5.03;3.93;;;;;;;;;;4988811;28;20429;-67
2022/08/30 09:22:00;;;;;;;3.57;3.47;;;;;;;;;;4991546;28;20459;-67
2022/08/30 09:24:26;;;;;;;7.27;4.57;;;;;;;;;;4991822;28;20845;-64
2022/08/30 09:26:52;;;;;;;4.30;4.00;;;;;;;;;;4990864;28;20972;-64
2022/08/30 09:29:18;;;;;;;3.17;3.03;;;;;;;;;;4993350;28;20511;-65
2022/08/30 09:31:47;;;;;;;5.90;3.90;;;;;;;;;;4993748;28;20845;-67
2022/08/30 09:34:17;;;;;;;13.63;4.43;;;;;;;;;;4990888;28;20443;-71
2022/08/30 09:36:48;;;;;;;3.80;3.60;;;;;;;;;;4991872;28;20464;-71
2022/08/30 09:39:16;;;;;;;8.73;3.37;;;;;;;;;;4992558;28;20866;-73
2022/08/30 09:41:44;;;;;;;7.00;3.30;;;;;;;;;;4991226;28;21043;-73
2022/08/30 09:44:19;;;;;;;4.70;4.20;;;;;;;;;;4985769;28;20516;-71
2022/08/30 09:46:51;;;;;;;3.37;3.27;;;;;;;;;;4987076;28;20476;-72
2022/08/30 09:49:36;;;;;;;3.67;3.47;;;;;;;;;;4990777;28;20442;-73
2022/08/30 09:52:09;;;;;;;8.43;4.50;;;;;;;;;;4992904;28;20973;-70
2022/08/30 09:54:53;;;;;;;3.57;3.33;;;;;;;;;;4992224;28;20841;-70
2022/08/30 09:57:35;;;;;;;3.50;3.30;;;;;;;;;;4989947;28;20437;-65
2022/08/30 10:00:07;;;;;;;2.57;2.57;;;;;;;;;;4991785;28;20837;-66
2022/08/30 10:02:41;;;;;;;11.80;4.30;;;;;;;;;;4985315;28;20429;-65
2022/08/30 10:05:19;;;;;;;3.20;3.10;;;;;;;;;;4992545;28;20413;-67
2022/08/30 10:07:54;;;;;;;3.70;3.50;;;;;;;;;;4991693;28;20428;-69
2022/08/30 10:10:33;;;;;;;3.67;3.27;;;;;;;;;;4989912;28;20925;-69
2022/08/30 10:13:18;;;;;;;4.30;3.90;;;;;;;;;;4991889;28;20417;-70
2022/08/30 10:15:47;;;;;;;10.90;4.03;;;;;;;;;;4993146;28;20413;-72
2022/08/30 10:18:33;;;;;;;10.77;4.20;;;;;;;;;;5007010;28;20872;-71
2022/08/30 10:21:11;;;;;;;4.20;3.20;;;;;;;;;;4990275;28;20550;-71
2022/08/30 10:23:41;;;;;;;4.63;4.23;;;;;;;;;;4989470;28;20841;-71
2022/08/30 10:26:12;;;;;;;3.97;3.77;;;;;;;;;;4990012;28;20453;-71
2022/08/30 10:28:43;;;;;;;3.83;3.63;;;;;;;;;;4991810;28;20844;-71
2022/08/30 10:31:17;;;;;;;23.03;3.97;;;;;;;;;;4991913;28;20433;-71
2022/08/30 10:33:46;;;;;;;6.03;4.37;;;;;;;;;;4986007;28;20442;-71
2022/08/30 10:36:13;;;;;;;3.90;3.80;;;;;;;;;;5004076;28;20456;-72
2022/08/30 10:38:41;;;;;;;7.97;4.00;;;;;;;;;;4989452;28;21184;-71
2022/08/30 10:41:26;;;;;;;4.83;4.30;;;;;;;;;;4989894;28;20488;-70
2022/08/30 10:44:07;;;;;;;12.03;4.27;;;;;;;;;;4989837;28;20930;-70
2022/08/30 10:46:52;;;;;;;7.23;3.40;;;;;;;;;;4991654;28;20437;-70
2022/08/30 10:49:20;;;;;;;4.83;4.30;;;;;;;;;;4991056;28;20480;-69
2022/08/30 10:52:00;;;;;;;4.47;4.07;;;;;;;;;;4992443;28;20843;-71
2022/08/30 10:54:34;;;;;;;23.53;4.60;;;;;;;;;;4990815;28;20440;-70
2022/08/30 10:57:00;;;;;;;10.40;4.73;;;;;;;;;;4989741;28;20432;-70
2022/08/30 10:59:26;;;;;;;11.13;4.43;;;;;;;;;;4992077;28;20806;-71
2022/08/30 11:02:10;;;;;;;4.17;4.03;;;;;;;;;;4989207;28;20491;-70
2022/08/30 11:04:55;;;;;;;3.50;3.40;;;;;;;;;;4987984;28;20444;-70
2022/08/30 11:07:34;;;;;;;4.27;3.87;;;;;;;;;;4991329;28;20413;-71
2022/08/30 11:10:06;;;;;;;8.13;4.10;;;;;;;;;;4990633;28;20853;-71
2022/08/30 11:12:38;;;;;;;4.10;3.90;;;;;;;;;;4988894;28;20448;-70
2022/08/30 11:15:15;;;;;;;6.03;3.80;;;;;;;;;;4991827;28;20417;-70
2022/08/30 11:18:04;;;;;;;3.67;3.57;;;;;;;;;;4991331;28;20820;-71
2022/08/30 11:20:39;;;;;;;4.90;4.43;;;;;;;;;;4989973;28;20551;-72
2022/08/30 11:23:25;;;;;;;5.90;5.33;;;;;;;;;;4990015;28;20453;-71
2022/08/30 11:25:52;;;;;;;5.80;3.70;;;;;;;;;;4991005;28;20504;-71
2022/08/30 11:28:36;;;;;;;4.57;3.50;;;;;;;;;;4990945;28;20471;-71
2022/08/30 11:31:17;;;;;;;3.50;3.40;;;;;;;;;;4990489;28;20429;-70
2022/08/30 11:33:46;;;;;;;6.93;4.07;;;;;;;;;;4991261;28;20478;-69
2022/08/30 11:36:28;;;;;;;6.77;3.63;;;;;;;;;;4980167;28;20593;-70
2022/08/30 11:38:54;;;;;;;4.17;3.97;;;;;;;;;;4985866;28;20447;-71
2022/08/30 11:41:29;;;;;;;5.77;5.30;;;;;;;;;;4990037;28;20480;-69
2022/08/30 11:43:56;;;;;;;5.23;4.07;;;;;;;;;;4990579;28;20208;-69
2022/08/30 11:46:27;;;;;;;3.60;3.40;;;;;;;;;;4988810;28;20437;-70
2022/08/30 11:48:55;;;;;;;7.80;3.87;;;;;;;;;;4997438;28;20424;-69
2022/08/30 11:51:33;;;;;;;6.07;4.67;;;;;;;;;;4985240;28;20859;-71
2022/08/30 11:54:08;;;;;;;3.07;3.07;;;;;;;;;;4988012;28;20433;-69
2022/08/30 11:56:45;;;;;;;2.87;2.87;;;;;;;;;;4987550;28;20445;-72
2022/08/30 11:59:20;;;;;;;10.00;4.40;;;;;;;;;;4985120;28;20516;-70
2022/08/30 12:01:46;;;;;;;3.63;3.53;;;;;;;;;;4990339;28;20487;-71
2022/08/30 12:04:19;;;;;;;3.17;2.90;;;;;;;;;;4984579;28;20437;-71
2022/08/30 12:06:47;;;;;;;7.57;3.87;;;;;;;;;;4984438;28;20476;-68
2022/08/30 12:09:36;;;;;;;3.87;3.60;;;;;;;;;;4988279;28;20433;-69
2022/08/30 12:12:07;;;;;;;3.87;3.67;;;;;;;;;;4988827;28;20859;-71
2022/08/30 12:14:33;;;;;;;4.10;3.70;;;;;;;;;;4989129;28;20440;-71
2022/08/30 12:19:46;;;;;;;6.93;3.70;;;;;;;;;;4990781;28;20259;-71
2022/08/30 12:22:15;;;;;;;4.40;4.00;;;;;;;;;;4989202;28;20425;-70
2022/08/30 12:24:43;;;;;;;5.43;4.20;;;;;;;;;;4986405;28;20758;-66
2022/08/30 12:27:21;;;;;;;9.27;4.37;;;;;;;;;;4988365;28;20429;-69
2022/08/30 12:29:55;;;;;;;4.53;4.33;;;;;;;;;;4989241;28;20432;-68
2022/08/30 12:32:21;;;;;;;4.43;3.97;;;;;;;;;;5005801;28;20527;-71
2022/08/30 12:34:47;;;;;;;4.07;3.70;;;;;;;;;;4987792;28;20499;-71
2022/08/30 12:37:19;;;;;;;4.70;4.30;;;;;;;;;;4990045;28;20428;-70
2022/08/30 12:39:46;;;;;;;5.37;4.90;;;;;;;;;;4981710;28;20728;-71
2022/08/30 12:42:12;;;;;;;4.20;3.90;;;;;;;;;;4987723;28;20444;-68
2022/08/30 12:44:39;;;;;;;3.90;3.80;;;;;;;;;;4989875;28;20412;-68
2022/08/30 12:47:05;;;;;;;3.93;3.63;;;;;;;;;;4998684;28;20831;-69
2022/08/30 12:49:34;;;;;;;4.67;4.27;;;;;;;;;;4984560;28;20445;-68
2022/08/30 12:52:18;;;;;;;4.47;4.20;;;;;;;;;;4988742;28;20440;-70
2022/08/30 12:54:44;;;;;;;4.37;4.13;;;;;;;;;;4989286;28;20479;-70
2022/08/30 12:57:12;;;;;;;4.60;4.40;;;;;;;;;;4990974;28;20829;-70
2022/08/30 12:59:50;;;;;;;4.77;4.40;;;;;;;;;;4991345;28;20788;-71
2022/08/30 13:02:16;;;;;;;4.50;4.30;;;;;;;;;;4992811;28;20436;-71
2022/08/30 13:04:42;;;;;;;4.10;4.00;;;;;;;;;;4993846;28;20424;-70
2022/08/30 13:07:09;;;;;;;4.70;4.30;;;;;;;;;;4993702;28;20421;-68
2022/08/30 13:09:39;;;;;;;4.70;4.50;;;;;;;;;;4991784;28;20459;-69
2022/08/30 13:12:08;;;;;;;4.73;4.53;;;;;;;;;;4988737;28;20500;-66
2022/08/30 13:14:34;;;;;;;4.10;3.70;;;;;;;;;;4993507;28;20427;-71
2022/08/30 13:17:06;;;;;;;8.20;4.10;;;;;;;;;;4993522;28;20789;-71
2022/08/30 13:19:43;;;;;;;9.80;4.00;;;;;;;;;;4993349;28;20456;-66
2022/08/30 13:22:24;;;;;;;4.70;4.50;;;;;;;;;;4991268;28;20499;-71
2022/08/30 13:24:51;;;;;;;4.87;4.57;;;;;;;;;;4990534;28;20441;-71
2022/08/30 13:27:16;;;;;;;4.07;3.33;;;;;;;;;;4988678;28;20432;-72
2022/08/30 13:29:42;;;;;;;4.30;3.73;;;;;;;;;;4991692;28;20787;-72
2022/08/30 13:32:08;;;;;;;9.10;4.80;;;;;;;;;;4990909;28;20479;-72
2022/08/30 13:34:35;;;;;;;4.30;3.90;;;;;;;;;;4991338;28;20520;-71
2022/08/30 13:37:01;;;;;;;3.63;3.23;;;;;;;;;;4990532;28;20433;-70
2022/08/30 13:39:28;;;;;;;5.67;4.87;;;;;;;;;;4992515;28;20428;-72
2022/08/30 13:41:54;;;;;;;8.93;4.10;;;;;;;;;;4990873;28;20676;-70
2022/08/30 13:44:20;;;;;;;4.70;4.30;;;;;;;;;;4992917;28;20424;-70
2022/08/30 13:46:49;;;;;;;4.63;4.20;;;;;;;;;;4988342;28;20532;-68
2022/08/30 13:49:34;;;;;;;4.30;4.20;;;;;;;;;;4990432;28;20475;-71
2022/08/30 13:52:01;;;;;;;4.13;4.00;;;;;;;;;;4990680;28;20449;-71
2022/08/30 13:54:27;;;;;;;3.97;3.77;;;;;;;;;;4992840;28;20425;-68
2022/08/30 13:56:54;;;;;;;4.73;4.53;;;;;;;;;;4992042;28;20495;-71
2022/08/30 13:59:20;;;;;;;5.23;4.50;;;;;;;;;;4992362;28;20527;-70
2022/08/30 14:01:47;;;;;;;4.30;4.10;;;;;;;;;;4988176;28;20496;-71
2022/08/30 14:04:13;;;;;;;4.33;4.10;;;;;;;;;;4990379;28;20459;-70
2022/08/30 14:06:39;;;;;;;4.23;3.93;;;;;;;;;;4991240;28;21008;-68
2022/08/30 14:09:06;;;;;;;4.27;4.07;;;;;;;;;;4988814;28;20523;-71
2022/08/30 14:11:32;;;;;;;4.97;4.30;;;;;;;;;;4987590;28;20432;-71
2022/08/30 14:13:58;;;;;;;4.40;4.20;;;;;;;;;;4988681;28;20524;-70
2022/08/30 14:16:24;;;;;;;6.63;5.37;;;;;;;;;;4989193;28;20528;-70
2022/08/30 14:18:50;;;;;;;4.60;4.30;;;;;;;;;;4991904;28;20437;-70
2022/08/30 14:21:16;;;;;;;4.77;4.40;;;;;;;;;;4990088;28;20844;-70
2022/08/30 14:23:42;;;;;;;17.87;14.47;;;;;;;;;;4983293;28;20444;-69
2022/08/30 14:26:10;;;;;;;4.20;4.10;;;;;;;;;;4984403;28;20421;-70
2022/08/30 14:28:37;;;;;;;4.10;3.70;;;;;;;;;;4986356;28;20481;-70
2022/08/30 14:31:03;;;;;;;4.53;4.33;;;;;;;;;;4987783;28;20524;-69
2022/08/30 14:33:29;;;;;;;4.57;4.27;;;;;;;;;;4991032;28;20520;-71
2022/08/30 14:35:54;;;;;;;4.27;4.07;;;;;;;;;;4990085;28;20483;-72
2022/08/30 14:38:20;;;;;;;4.20;4.10;;;;;;;;;;4991392;28;20444;-71
2022/08/30 14:40:46;;;;;;;5.30;4.03;;;;;;;;;;4989918;28;20486;-72
2022/08/30 14:43:13;;;;;;;4.97;4.80;;;;;;;;;;4987897;28;20938;-68
2022/08/30 14:45:39;;;;;;;4.33;4.13;;;;;;;;;;4989821;28;20896;-70
2022/08/30 14:48:08;;;;;;;4.07;3.77;;;;;;;;;;4989620;28;20472;-70
2022/08/30 14:50:34;;;;;;;4.27;4.17;;;;;;;;;;4991184;28;20955;-71
2022/08/30 14:53:00;;;;;;;6.93;3.73;;;;;;;;;;4985945;28;20454;-71
2022/08/30 14:55:28;;;;;;;3.53;3.43;;;;;;;;;;4990696;28;20438;-71
2022/08/30 14:57:54;;;;;;;3.67;3.37;;;;;;;;;;4990101;28;20969;-71
2022/08/30 15:00:22;;;;;;;5.53;3.90;;;;;;;;;;4999084;28;20491;-70